Terminal Aerodrome Forecast
Issued by NWS

Home | Current Version | Previous Version | Text Only | Print | Product List | Glossary On
Versions: 1 2 3 4 5 6 7 8 9 10 11 12 13 14 15
147
FTUS43 KMPX 132345
TAFRWF
TAF
KRWF 132345Z 1400/1424 15013KT P6SM OVC050
     FM140500 14014G23KT 1 1/2SM -SN BKN025 OVC040
      TEMPO 1407/1410 3/4SM -SN BLSN OVC015
     FM141000 14014G20KT 3SM -SN OVC015=

USA.gov is the U.S. government's official web portal to all federal, state and local government web resources and services.